Time;durP1;ratioP1;P1;durP2;ratioP2;P2;SDS_P1;SDS_P2;PMS_P1;PMS_P2;Temp;Humidity;BMP_temperature;BMP_pressure;BME280_temperature;BME280_humidity;BME280_pressure;Samples;Min_cycle;Max_cycle;Signal;HPM_P1;HPM_P2
2023/05/06 00:00:00;;;;;;;0.60;0.60;;;;;13.10;96093.00;;;;5033146;28;20196;-57
2023/05/06 00:02:28;;;;;;;0.70;0.70;;;;;13.00;96090.00;;;;5033022;28;20204;-57
2023/05/06 00:04:55;;;;;;;0.40;0.40;;;;;12.90;96093.00;;;;5032906;28;20315;-57
2023/05/06 00:07:23;;;;;;;2.13;1.20;;;;;12.90;96096.00;;;;5033185;28;20206;-57
2023/05/06 00:09:50;;;;;;;0.67;0.67;;;;;12.90;96081.00;;;;5031727;28;20667;-57
2023/05/06 00:12:18;;;;;;;0.70;0.70;;;;;12.90;96078.00;;;;5032943;28;20260;-56
2023/05/06 00:14:45;;;;;;;0.73;0.73;;;;;12.90;96080.00;;;;5033177;28;20554;-57
2023/05/06 00:17:14;;;;;;;0.70;0.70;;;;;12.90;96085.00;;;;5032866;28;20189;-56
2023/05/06 00:19:43;;;;;;;0.60;0.60;;;;;12.90;96086.00;;;;5032756;28;20213;-56
2023/05/06 00:22:10;;;;;;;0.73;0.73;;;;;13.00;96094.00;;;;5033130;28;20600;-58
2023/05/06 00:24:38;;;;;;;1.43;0.90;;;;;13.00;96090.00;;;;5033026;28;20566;-56
2023/05/06 00:27:05;;;;;;;0.50;0.50;;;;;13.00;96083.00;;;;5033292;28;20192;-57
2023/05/06 00:29:32;;;;;;;0.77;0.77;;;;;12.90;96084.00;;;;5032766;28;20213;-58
2023/05/06 00:32:00;;;;;;;0.73;0.73;;;;;12.90;96078.00;;;;5032759;28;20193;-56
2023/05/06 00:34:29;;;;;;;0.70;0.70;;;;;12.80;96084.00;;;;5032710;28;20189;-57
2023/05/06 00:36:56;;;;;;;0.90;0.90;;;;;12.80;96079.00;;;;5033869;28;20188;-59
2023/05/06 00:39:24;;;;;;;0.77;0.77;;;;;12.80;96074.00;;;;5036474;28;20236;-59
2023/05/06 00:41:52;;;;;;;0.60;0.60;;;;;12.80;96085.00;;;;5036424;28;20271;-56
2023/05/06 00:44:19;;;;;;;5.20;0.93;;;;;12.60;96073.00;;;;5036388;28;20671;-57
2023/05/06 00:46:46;;;;;;;0.60;0.60;;;;;12.60;96073.00;;;;5036595;28;20223;-57
2023/05/06 00:49:14;;;;;;;0.60;0.60;;;;;12.50;96063.00;;;;5036248;28;20232;-57
2023/05/06 00:51:43;;;;;;;0.70;0.70;;;;;12.50;96073.00;;;;5036205;28;20193;-58
2023/05/06 00:54:10;;;;;;;0.60;0.60;;;;;12.40;96059.00;;;;5036213;28;20200;-57
2023/05/06 00:56:38;;;;;;;0.67;0.67;;;;;12.40;96059.00;;;;5036180;28;20274;-58
2023/05/06 00:59:05;;;;;;;0.60;0.60;;;;;12.30;96060.00;;;;5036047;28;20213;-57
2023/05/06 01:01:33;;;;;;;0.73;0.73;;;;;12.20;96058.00;;;;5036052;28;20196;-57
2023/05/06 01:04:00;;;;;;;1.27;1.27;;;;;12.20;96068.00;;;;5036045;28;20189;-57
2023/05/06 01:06:35;;;;;;;0.70;0.70;;;;;11.90;96061.00;;;;5035906;28;20786;-57
2023/05/06 01:09:12;;;;;;;0.60;0.60;;;;;12.00;96071.00;;;;5035978;28;20287;-57
2023/05/06 01:11:45;;;;;;;0.70;0.70;;;;;12.10;96063.00;;;;5036230;28;20251;-56
2023/05/06 01:14:21;;;;;;;0.90;0.90;;;;;12.10;96062.00;;;;5036177;28;20181;-57
2023/05/06 01:16:53;;;;;;;0.80;0.80;;;;;12.20;96067.00;;;;5034572;28;20192;-58
2023/05/06 01:19:36;;;;;;;0.70;0.70;;;;;12.00;96065.00;;;;5035703;28;20266;-59
2023/05/06 01:22:06;;;;;;;0.90;0.90;;;;;12.00;96059.00;;;;5036008;28;20616;-58
2023/05/06 01:24:40;;;;;;;0.53;0.53;;;;;12.00;96063.00;;;;5036194;28;20283;-58
2023/05/06 01:27:08;;;;;;;0.50;0.50;;;;;11.90;96061.00;;;;5035582;28;20201;-57
2023/05/06 01:29:39;;;;;;;0.63;0.63;;;;;11.90;96066.00;;;;5035549;28;20216;-56
2023/05/06 01:32:21;;;;;;;0.60;0.60;;;;;11.80;96069.00;;;;5034284;28;20205;-58
2023/05/06 01:34:55;;;;;;;0.70;0.70;;;;;11.80;96066.00;;;;5035834;28;20268;-57
2023/05/06 01:37:30;;;;;;;0.60;0.60;;;;;11.90;96067.00;;;;5035373;28;20714;-56
2023/05/06 01:40:00;;;;;;;0.90;0.90;;;;;11.80;96076.00;;;;5035962;28;20289;-57
2023/05/06 01:42:29;;;;;;;1.13;1.13;;;;;11.90;96076.00;;;;5035644;28;20191;-57
2023/05/06 01:44:59;;;;;;;0.60;0.60;;;;;11.80;96066.00;;;;5035256;28;20193;-57
2023/05/06 01:47:27;;;;;;;0.77;0.77;;;;;11.90;96074.00;;;;5035358;28;20181;-57
2023/05/06 01:49:55;;;;;;;1.70;1.13;;;;;11.90;96079.00;;;;5062784;22;20236;-53
2023/05/06 01:52:22;;;;;;;0.80;0.80;;;;;11.90;96086.00;;;;5055015;28;20215;-53
2023/05/06 01:54:50;;;;;;;1.80;1.17;;;;;11.90;96073.00;;;;5054986;28;20199;-53
2023/05/06 01:57:18;;;;;;;0.50;0.50;;;;;11.90;96071.00;;;;5054962;28;20192;-53
2023/05/06 01:59:46;;;;;;;0.80;0.80;;;;;11.90;96070.00;;;;5041474;28;20271;-53
2023/05/06 02:02:13;;;;;;;0.87;0.87;;;;;11.80;96068.00;;;;5034929;28;20196;-53
2023/05/06 02:04:41;;;;;;;1.17;1.10;;;;;11.80;96062.00;;;;5034879;28;20203;-53
2023/05/06 02:07:08;;;;;;;1.00;1.00;;;;;11.70;96070.00;;;;5035000;28;20255;-53
2023/05/06 02:09:35;;;;;;;0.80;0.80;;;;;11.70;96079.00;;;;5034736;28;20217;-53
2023/05/06 02:12:03;;;;;;;0.73;0.73;;;;;11.50;96073.00;;;;5034987;28;20201;-53
2023/05/06 02:14:32;;;;;;;0.67;0.67;;;;;11.20;96072.00;;;;5034977;28;20189;-53
2023/05/06 02:17:03;;;;;;;0.70;0.70;;;;;11.20;96069.00;;;;5034618;28;20192;-53
2023/05/06 02:19:31;;;;;;;1.47;1.37;;;;;11.20;96076.00;;;;5034580;28;20266;-53
2023/05/06 02:21:58;;;;;;;0.93;0.93;;;;;11.30;96068.00;;;;5034543;28;20220;-53
2023/05/06 02:24:26;;;;;;;0.70;0.70;;;;;11.40;96070.00;;;;5034545;28;20660;-53
2023/05/06 02:26:53;;;;;;;0.77;0.77;;;;;11.50;96071.00;;;;5034384;28;20262;-53
2023/05/06 02:29:20;;;;;;;0.40;0.40;;;;;11.60;96062.00;;;;5034587;28;20263;-52
2023/05/06 02:31:49;;;;;;;0.60;0.60;;;;;11.70;96069.00;;;;5034304;28;20666;-55
2023/05/06 02:34:17;;;;;;;1.23;0.90;;;;;11.60;96064.00;;;;5034304;28;20193;-52
2023/05/06 02:37:00;;;;;;;;;;;;;;;;;;;;;
2023/05/06 02:39:30;;;;;;;0.50;0.50;;;;;11.60;96052.00;;;;5024685;28;20232;-54
2023/05/06 02:41:58;;;;;;;0.87;0.87;;;;;11.60;96060.00;;;;5034420;28;20192;-53
2023/05/06 02:44:25;;;;;;;0.60;0.60;;;;;11.50;96064.00;;;;5034160;28;20197;-53
2023/05/06 02:46:54;;;;;;;0.90;0.90;;;;;11.30;96060.00;;;;5034249;28;20225;-53
2023/05/06 02:49:21;;;;;;;0.70;0.70;;;;;11.40;96057.00;;;;5034100;28;20220;-52
2023/05/06 02:51:49;;;;;;;0.80;0.80;;;;;11.30;96059.00;;;;5033995;28;20238;-53
2023/05/06 02:54:16;;;;;;;0.90;0.90;;;;;11.20;96055.00;;;;5034075;28;20283;-52
2023/05/06 02:56:45;;;;;;;1.67;1.57;;;;;11.00;96062.00;;;;5016122;28;20243;-52
2023/05/06 02:59:12;;;;;;;0.70;0.70;;;;;11.00;96060.00;;;;5033915;28;20213;-53
2023/05/06 03:01:39;;;;;;;0.80;0.80;;;;;11.10;96055.00;;;;5034875;28;20228;-52
2023/05/06 03:04:08;;;;;;;1.30;0.93;;;;;11.10;96055.00;;;;5034021;28;20196;-52
2023/05/06 03:06:36;;;;;;;0.60;0.60;;;;;11.10;96050.00;;;;5033942;28;20290;-52
2023/05/06 03:09:03;;;;;;;0.60;0.60;;;;;11.10;96052.00;;;;5034166;28;20205;-53
2023/05/06 03:11:31;;;;;;;0.80;0.80;;;;;11.20;96048.00;;;;5033837;28;20200;-55
2023/05/06 03:13:58;;;;;;;0.70;0.70;;;;;11.20;96051.00;;;;5033610;28;20193;-53
2023/05/06 03:16:26;;;;;;;1.00;1.00;;;;;11.20;96048.00;;;;5033772;28;20193;-54
2023/05/06 03:18:53;;;;;;;0.53;0.53;;;;;11.10;96047.00;;;;5033424;28;20643;-53
2023/05/06 03:21:22;;;;;;;0.70;0.70;;;;;11.00;96059.00;;;;5033469;28;20204;-53
2023/05/06 03:23:49;;;;;;;0.70;0.70;;;;;11.00;96052.00;;;;5033730;28;20192;-53
2023/05/06 03:26:17;;;;;;;0.60;0.60;;;;;11.00;96045.00;;;;5033311;28;20223;-53
2023/05/06 03:28:44;;;;;;;0.80;0.80;;;;;11.10;96052.00;;;;5033560;28;20224;-53
2023/05/06 03:31:12;;;;;;;0.67;0.67;;;;;11.10;96042.00;;;;5033354;28;20200;-54
2023/05/06 03:33:39;;;;;;;0.80;0.80;;;;;11.00;96044.00;;;;5016401;28;20207;-53
2023/05/06 03:36:07;;;;;;;0.67;0.67;;;;;10.90;96037.00;;;;5033274;28;20212;-53
2023/05/06 03:38:36;;;;;;;0.70;0.70;;;;;10.80;96037.00;;;;5033421;28;20574;-53
2023/05/06 03:41:03;;;;;;;0.80;0.80;;;;;10.80;96031.00;;;;5033174;28;20247;-53
2023/05/06 03:43:31;;;;;;;0.70;0.70;;;;;10.80;96032.00;;;;5033134;28;20193;-53
2023/05/06 03:45:58;;;;;;;0.70;0.70;;;;;10.70;96035.00;;;;5033035;28;20224;-53
2023/05/06 03:48:26;;;;;;;0.90;0.90;;;;;10.70;96039.00;;;;5033150;28;20550;-53
2023/05/06 03:50:53;;;;;;;0.73;0.73;;;;;10.60;96036.00;;;;5033667;28;20185;-53
2023/05/06 03:53:21;;;;;;;0.70;0.70;;;;;10.60;96041.00;;;;5033046;28;20201;-53
2023/05/06 03:55:50;;;;;;;0.80;0.80;;;;;10.60;96044.00;;;;5033040;28;20196;-53
2023/05/06 03:58:17;;;;;;;0.60;0.60;;;;;10.50;96033.00;;;;5032915;28;20223;-53
2023/05/06 04:00:45;;;;;;;0.60;0.60;;;;;10.60;96036.00;;;;5033523;28;20255;-53
2023/05/06 04:03:12;;;;;;;0.70;0.70;;;;;10.70;96045.00;;;;5032981;28;20664;-53
2023/05/06 04:05:39;;;;;;;0.70;0.70;;;;;10.70;96044.00;;;;5015162;28;20193;-53
2023/05/06 04:08:07;;;;;;;0.60;0.60;;;;;10.60;96038.00;;;;5032821;28;20243;-53
2023/05/06 04:10:38;;;;;;;0.63;0.63;;;;;10.70;96039.00;;;;5033071;28;20603;-53
2023/05/06 04:13:07;;;;;;;0.60;0.60;;;;;10.70;96042.00;;;;5036053;28;20188;-53
2023/05/06 04:15:35;;;;;;;0.60;0.60;;;;;10.80;96035.00;;;;5037173;28;20196;-53
2023/05/06 04:18:03;;;;;;;1.50;0.70;;;;;10.80;96037.00;;;;5019037;28;20193;-53
2023/05/06 04:20:30;;;;;;;0.50;0.50;;;;;10.80;96039.00;;;;5036975;28;20641;-53
2023/05/06 04:22:57;;;;;;;0.60;0.60;;;;;10.70;96038.00;;;;5036769;28;20211;-53
2023/05/06 04:25:26;;;;;;;1.10;1.10;;;;;10.80;96031.00;;;;5036704;28;20241;-53
2023/05/06 04:27:53;;;;;;;0.80;0.80;;;;;10.80;96038.00;;;;5036555;28;20224;-53
2023/05/06 04:30:22;;;;;;;1.07;1.00;;;;;10.80;96045.00;;;;5036540;28;20216;-53
2023/05/06 04:32:51;;;;;;;1.53;1.30;;;;;10.80;96043.00;;;;5018771;28;20192;-53
2023/05/06 04:35:18;;;;;;;0.70;0.70;;;;;10.80;96042.00;;;;5036863;28;20189;-53
2023/05/06 04:37:47;;;;;;;0.87;0.83;;;;;10.90;96042.00;;;;5036485;28;20272;-53
2023/05/06 04:40:16;;;;;;;0.60;0.60;;;;;10.90;96052.00;;;;5036401;28;20221;-53
2023/05/06 04:42:43;;;;;;;0.60;0.60;;;;;11.00;96046.00;;;;5036369;28;20247;-53
2023/05/06 04:45:11;;;;;;;0.80;0.80;;;;;11.00;96050.00;;;;5036334;28;20197;-53
2023/05/06 04:47:41;;;;;;;0.50;0.50;;;;;11.00;96070.00;;;;5036290;28;20213;-53
2023/05/06 04:50:09;;;;;;;0.70;0.70;;;;;11.00;96067.00;;;;5036013;28;20228;-53
2023/05/06 04:52:36;;;;;;;0.70;0.70;;;;;11.20;96060.00;;;;5036471;28;20220;-53
2023/05/06 04:55:04;;;;;;;0.70;0.70;;;;;11.20;96069.00;;;;5036185;28;20254;-53
2023/05/06 04:57:32;;;;;;;0.77;0.77;;;;;11.30;96063.00;;;;5036036;28;20193;-53
2023/05/06 04:59:59;;;;;;;0.97;0.97;;;;;11.20;96063.00;;;;5036061;28;20719;-53
2023/05/06 05:02:27;;;;;;;0.80;0.80;;;;;11.10;96077.00;;;;5036277;28;20197;-53
2023/05/06 05:04:56;;;;;;;0.70;0.70;;;;;11.10;96071.00;;;;5035929;28;20678;-54
2023/05/06 05:07:23;;;;;;;0.63;0.63;;;;;11.10;96084.00;;;;5035890;28;20267;-54
2023/05/06 05:09:50;;;;;;;0.70;0.70;;;;;10.90;96076.00;;;;5018092;28;20231;-54
2023/05/06 05:12:18;;;;;;;0.67;0.67;;;;;11.00;96086.00;;;;5035891;28;20671;-54
2023/05/06 05:14:46;;;;;;;1.10;1.10;;;;;11.00;96074.00;;;;5035863;28;20197;-54
2023/05/06 05:17:13;;;;;;;0.70;0.70;;;;;11.00;96075.00;;;;5036300;28;20268;-54
2023/05/06 05:19:41;;;;;;;0.70;0.70;;;;;11.20;96073.00;;;;5035704;28;20217;-54
2023/05/06 05:22:10;;;;;;;0.60;0.60;;;;;11.10;96075.00;;;;5035547;28;20695;-53
2023/05/06 05:24:37;;;;;;;1.07;1.07;;;;;11.20;96078.00;;;;5035542;28;20231;-54
2023/05/06 05:27:04;;;;;;;0.80;0.80;;;;;11.50;96078.00;;;;5035469;28;20221;-54
2023/05/06 05:29:32;;;;;;;0.50;0.50;;;;;11.50;96087.00;;;;5035472;28;20279;-54
2023/05/06 05:31:59;;;;;;;0.70;0.70;;;;;11.60;96084.00;;;;5035596;28;20196;-54
2023/05/06 05:34:27;;;;;;;0.60;0.60;;;;;11.80;96082.00;;;;5035433;28;20193;-54
2023/05/06 05:36:54;;;;;;;0.97;0.97;;;;;11.90;96087.00;;;;5035962;28;20193;-54
2023/05/06 05:39:23;;;;;;;0.73;0.73;;;;;11.90;96090.00;;;;5035525;28;20235;-54
2023/05/06 05:41:50;;;;;;;0.60;0.60;;;;;11.80;96081.00;;;;5017144;28;20278;-54
2023/05/06 05:44:20;;;;;;;0.73;0.73;;;;;11.90;96089.00;;;;5035276;28;20205;-54
2023/05/06 05:46:48;;;;;;;0.70;0.70;;;;;12.00;96080.00;;;;5035156;28;20216;-54
2023/05/06 05:49:15;;;;;;;0.87;0.87;;;;;12.00;96090.00;;;;5035043;28;20699;-53
2023/05/06 05:51:42;;;;;;;1.00;1.00;;;;;12.10;96079.00;;;;5017500;28;20196;-54
2023/05/06 05:54:10;;;;;;;1.13;1.03;;;;;12.10;96081.00;;;;5035388;28;20192;-54
2023/05/06 05:56:39;;;;;;;0.67;0.67;;;;;12.20;96083.00;;;;5017979;28;20292;-54
2023/05/06 05:59:06;;;;;;;0.80;0.80;;;;;12.10;96079.00;;;;5034881;28;20215;-54
2023/05/06 06:01:34;;;;;;;0.77;0.77;;;;;12.10;96078.00;;;;5035456;28;20204;-54
2023/05/06 06:04:01;;;;;;;0.97;0.97;;;;;12.00;96079.00;;;;5034905;28;20189;-53
2023/05/06 06:06:28;;;;;;;0.77;0.77;;;;;12.10;96076.00;;;;5035866;28;20205;-52
2023/05/06 06:08:56;;;;;;;1.00;1.00;;;;;12.10;96084.00;;;;5035486;28;20217;-53
2023/05/06 06:11:24;;;;;;;0.77;0.77;;;;;12.20;96087.00;;;;5035557;28;20193;-53
2023/05/06 06:13:53;;;;;;;0.60;0.60;;;;;12.50;96088.00;;;;5035272;28;20208;-53
2023/05/06 06:16:20;;;;;;;0.63;0.63;;;;;12.30;96079.00;;;;5034896;28;20280;-53
2023/05/06 06:18:48;;;;;;;0.60;0.60;;;;;12.40;96086.00;;;;5035500;28;20217;-53
2023/05/06 06:21:16;;;;;;;0.70;0.70;;;;;12.50;96093.00;;;;5034804;28;20220;-54
2023/05/06 06:23:43;;;;;;;0.50;0.50;;;;;12.70;96093.00;;;;5034705;28;20196;-53
2023/05/06 06:26:11;;;;;;;0.60;0.60;;;;;12.60;96094.00;;;;5034443;28;20197;-54
2023/05/06 06:28:39;;;;;;;0.67;0.67;;;;;12.70;96103.00;;;;5034257;28;20589;-54
2023/05/06 06:31:07;;;;;;;0.73;0.73;;;;;12.90;96095.00;;;;5034309;28;20197;-53
2023/05/06 06:33:35;;;;;;;0.63;0.63;;;;;12.70;96093.00;;;;5034086;28;20203;-53
2023/05/06 06:36:02;;;;;;;0.80;0.80;;;;;12.50;96099.00;;;;5015717;28;20667;-52
2023/05/06 06:38:30;;;;;;;0.63;0.63;;;;;12.30;96099.00;;;;5034330;28;20278;-53
2023/05/06 06:40:57;;;;;;;2.17;0.93;;;;;12.50;96099.00;;;;5034038;28;20295;-53
2023/05/06 06:43:25;;;;;;;0.90;0.90;;;;;12.60;96101.00;;;;5034287;28;20216;-53
2023/05/06 06:45:53;;;;;;;0.60;0.60;;;;;12.70;96097.00;;;;5033965;28;20192;-53
2023/05/06 06:48:21;;;;;;;0.70;0.70;;;;;12.80;96097.00;;;;5033758;28;20220;-53
2023/05/06 06:50:49;;;;;;;0.67;0.67;;;;;12.90;96094.00;;;;5034141;28;20193;-52
2023/05/06 06:53:16;;;;;;;0.97;0.97;;;;;13.00;96100.00;;;;5034373;28;20193;-53
2023/05/06 06:55:44;;;;;;;0.90;0.90;;;;;13.30;96091.00;;;;5016082;28;20199;-53
2023/05/06 06:58:12;;;;;;;0.70;0.70;;;;;13.30;96099.00;;;;5015974;28;20726;-53
2023/05/06 07:00:39;;;;;;;0.70;0.70;;;;;13.40;96092.00;;;;5034087;28;20571;-54
2023/05/06 07:03:07;;;;;;;0.70;0.70;;;;;13.60;96096.00;;;;5034138;28;20243;-53
2023/05/06 07:05:35;;;;;;;0.60;0.60;;;;;13.70;96097.00;;;;5033689;28;20204;-53
2023/05/06 07:08:03;;;;;;;0.60;0.60;;;;;14.00;96096.00;;;;5033540;28;20216;-52
2023/05/06 07:10:31;;;;;;;0.90;0.90;;;;;14.20;96090.00;;;;5033520;28;20311;-53
2023/05/06 07:12:58;;;;;;;0.80;0.80;;;;;14.40;96096.00;;;;5033649;28;20193;-53
2023/05/06 07:15:25;;;;;;;0.90;0.90;;;;;14.50;96095.00;;;;5033523;28;20655;-53
2023/05/06 07:17:53;;;;;;;0.80;0.80;;;;;14.80;96088.00;;;;5033511;28;20200;-53
2023/05/06 07:20:20;;;;;;;0.60;0.60;;;;;14.80;96099.00;;;;5033348;28;20267;-53
2023/05/06 07:22:49;;;;;;;0.67;0.67;;;;;14.90;96095.00;;;;5033394;28;20655;-53
2023/05/06 07:25:17;;;;;;;0.60;0.60;;;;;15.10;96097.00;;;;5033334;28;20197;-53
2023/05/06 07:27:44;;;;;;;0.60;0.60;;;;;15.30;96099.00;;;;5033556;28;20231;-54
2023/05/06 07:30:12;;;;;;;0.57;0.57;;;;;15.40;96103.00;;;;5033235;28;20212;-54
2023/05/06 07:32:40;;;;;;;0.70;0.70;;;;;15.60;96104.00;;;;5033546;28;20200;-54
2023/05/06 07:35:08;;;;;;;0.90;0.90;;;;;15.70;96088.00;;;;5033319;28;20660;-55
2023/05/06 07:37:36;;;;;;;0.53;0.53;;;;;15.70;96093.00;;;;5033465;28;20243;-54
2023/05/06 07:40:05;;;;;;;0.40;0.40;;;;;15.80;96094.00;;;;5032976;28;20220;-58
2023/05/06 07:42:33;;;;;;;1.63;1.57;;;;;15.90;96094.00;;;;5033367;28;20193;-58
2023/05/06 07:45:00;;;;;;;0.57;0.57;;;;;15.90;96098.00;;;;5032972;28;20672;-58
2023/05/06 07:47:29;;;;;;;0.67;0.67;;;;;16.00;96102.00;;;;5032876;28;20219;-57
2023/05/06 07:49:57;;;;;;;0.70;0.70;;;;;16.10;96108.00;;;;5032776;28;20228;-57
2023/05/06 07:52:24;;;;;;;0.50;0.50;;;;;16.30;96110.00;;;;5032943;28;20202;-58
2023/05/06 07:54:52;;;;;;;0.70;0.70;;;;;16.30;96108.00;;;;5033223;28;20593;-57
2023/05/06 07:57:21;;;;;;;0.50;0.50;;;;;16.30;96107.00;;;;5032896;28;20667;-57
2023/05/06 07:59:49;;;;;;;0.70;0.70;;;;;16.40;96115.00;;;;5032850;28;20213;-57
2023/05/06 08:02:17;;;;;;;0.57;0.57;;;;;16.50;96113.00;;;;5033080;28;20196;-57
2023/05/06 08:04:45;;;;;;;0.80;0.80;;;;;16.60;96108.00;;;;5033099;28;20197;-58
2023/05/06 08:07:13;;;;;;;1.23;1.13;;;;;16.70;96111.00;;;;5033318;28;20196;-57
2023/05/06 08:09:41;;;;;;;0.60;0.60;;;;;17.00;96111.00;;;;5032862;28;20239;-57
2023/05/06 08:12:09;;;;;;;0.50;0.50;;;;;17.30;96112.00;;;;5032826;28;20254;-57
2023/05/06 08:14:37;;;;;;;0.60;0.60;;;;;17.50;96114.00;;;;5033097;28;20595;-58
2023/05/06 08:17:05;;;;;;;0.93;0.93;;;;;17.60;96111.00;;;;5032819;28;20200;-57
2023/05/06 08:19:32;;;;;;;0.67;0.67;;;;;17.50;96114.00;;;;5033014;28;20594;-57
2023/05/06 08:22:00;;;;;;;0.50;0.50;;;;;17.70;96118.00;;;;5032802;28;20203;-57
2023/05/06 08:24:28;;;;;;;0.60;0.60;;;;;17.40;96113.00;;;;5033022;28;20196;-56
2023/05/06 08:26:55;;;;;;;0.60;0.60;;;;;17.50;96117.00;;;;5033216;28;20221;-57
2023/05/06 08:29:22;;;;;;;0.67;0.67;;;;;17.50;96107.00;;;;5032564;28;20220;-57
2023/05/06 08:31:51;;;;;;;0.50;0.50;;;;;17.30;96118.00;;;;5032671;28;20196;-56
2023/05/06 08:34:20;;;;;;;0.70;0.70;;;;;17.60;96116.00;;;;5032938;28;20595;-56
2023/05/06 08:36:47;;;;;;;0.67;0.67;;;;;18.00;96115.00;;;;5032632;28;20193;-57
2023/05/06 08:39:15;;;;;;;0.70;0.70;;;;;18.00;96117.00;;;;5032825;28;20259;-56
2023/05/06 08:41:47;;;;;;;0.40;0.40;;;;;17.90;96121.00;;;;5032576;28;20192;-56
2023/05/06 08:44:18;;;;;;;0.50;0.50;;;;;18.20;96124.00;;;;5032620;28;20185;-56
2023/05/06 08:46:46;;;;;;;0.80;0.80;;;;;18.30;96113.00;;;;5032524;28;20184;-56
2023/05/06 08:49:16;;;;;;;0.30;0.30;;;;;18.30;96115.00;;;;5032294;28;20221;-57
2023/05/06 08:51:44;;;;;;;0.57;0.57;;;;;18.20;96117.00;;;;5032614;28;20619;-57
2023/05/06 08:54:13;;;;;;;1.33;0.93;;;;;18.50;96117.00;;;;5032842;28;20558;-57
2023/05/06 08:56:45;;;;;;;0.40;0.40;;;;;18.80;96112.00;;;;5014704;28;20690;-56
2023/05/06 08:59:13;;;;;;;1.07;1.07;;;;;18.90;96128.00;;;;5035385;28;20288;-57
2023/05/06 09:01:41;;;;;;;0.50;0.50;;;;;18.90;96128.00;;;;5036325;28;20617;-56
2023/05/06 09:04:10;;;;;;;0.50;0.50;;;;;18.80;96130.00;;;;5036291;28;20197;-57
2023/05/06 09:06:38;;;;;;;0.60;0.60;;;;;18.70;96124.00;;;;5035970;28;20196;-57
2023/05/06 09:09:06;;;;;;;0.60;0.60;;;;;18.60;96113.00;;;;5036000;28;20696;-56
2023/05/06 09:11:37;;;;;;;0.63;0.63;;;;;18.70;96110.00;;;;5035916;28;20200;-55
2023/05/06 09:14:10;;;;;;;0.60;0.60;;;;;18.90;96119.00;;;;5035930;28;20185;-56
2023/05/06 09:16:39;;;;;;;0.60;0.60;;;;;18.60;96107.00;;;;5035777;28;20195;-57
2023/05/06 09:19:07;;;;;;;0.50;0.50;;;;;18.80;96118.00;;;;5036721;28;20312;-57
2023/05/06 09:21:35;;;;;;;0.60;0.60;;;;;18.80;96113.00;;;;5036756;28;20554;-56
2023/05/06 09:24:05;;;;;;;0.57;0.57;;;;;19.00;96108.00;;;;5035958;28;20721;-57
2023/05/06 09:26:34;;;;;;;0.40;0.40;;;;;19.00;96119.00;;;;5035759;28;20181;-50
2023/05/06 09:29:02;;;;;;;0.50;0.50;;;;;19.20;96112.00;;;;5035852;28;20220;-49
2023/05/06 09:31:29;;;;;;;0.60;0.60;;;;;19.20;96118.00;;;;5035567;28;20199;-50
2023/05/06 09:34:00;;;;;;;0.50;0.50;;;;;19.00;96113.00;;;;5035698;28;20243;-48
2023/05/06 09:36:28;;;;;;;0.60;0.60;;;;;19.10;96108.00;;;;5017730;28;20571;-49
2023/05/06 09:38:56;;;;;;;0.90;0.90;;;;;19.40;96100.00;;;;5035572;28;20235;-48
2023/05/06 09:41:26;;;;;;;0.87;0.87;;;;;19.60;96109.00;;;;5035263;28;20195;-49
2023/05/06 09:43:54;;;;;;;0.63;0.63;;;;;19.80;96102.00;;;;5035564;28;20227;-49
2023/05/06 09:46:22;;;;;;;0.50;0.50;;;;;19.80;96100.00;;;;5035241;28;20201;-48
2023/05/06 09:48:51;;;;;;;0.60;0.60;;;;;20.10;96099.00;;;;5034989;28;20707;-49
2023/05/06 09:51:19;;;;;;;0.50;0.50;;;;;20.40;96102.00;;;;5035263;28;20208;-49
2023/05/06 09:53:47;;;;;;;0.50;0.50;;;;;20.20;96105.00;;;;5035358;28;20196;-49
2023/05/06 09:56:20;;;;;;;0.50;0.50;;;;;20.40;96098.00;;;;5035093;28;20210;-49
2023/05/06 09:58:50;;;;;;;0.40;0.40;;;;;20.40;96101.00;;;;5035207;28;20216;-47
2023/05/06 10:01:18;;;;;;;0.50;0.50;;;;;20.00;96101.00;;;;5034881;28;20227;-48
2023/05/06 10:03:46;;;;;;;0.80;0.80;;;;;20.00;96090.00;;;;5034898;28;20197;-49
2023/05/06 10:06:17;;;;;;;0.50;0.50;;;;;19.90;96082.00;;;;5035465;28;20181;-48
2023/05/06 10:08:46;;;;;;;0.60;0.60;;;;;20.40;96084.00;;;;5034102;28;20271;-48
2023/05/06 10:11:15;;;;;;;0.40;0.40;;;;;20.70;96081.00;;;;5035006;28;20201;-49
2023/05/06 10:13:44;;;;;;;0.40;0.40;;;;;20.60;96083.00;;;;5034815;28;20220;-48
2023/05/06 10:16:14;;;;;;;0.50;0.50;;;;;19.90;96083.00;;;;5035221;28;20243;-48
2023/05/06 10:18:46;;;;;;;0.40;0.40;;;;;20.30;96090.00;;;;5035156;28;20216;-48
2023/05/06 10:21:26;;;;;;;0.60;0.60;;;;;20.20;96078.00;;;;5034816;28;20552;-47
2023/05/06 10:24:03;;;;;;;0.50;0.50;;;;;20.40;96082.00;;;;5016807;28;20188;-48
2023/05/06 10:26:31;;;;;;;0.97;0.97;;;;;20.40;96068.00;;;;5034527;28;20669;-47
2023/05/06 10:29:01;;;;;;;0.52;0.52;;;;;21.00;96069.00;;;;5016582;28;20680;-48
2023/05/06 10:31:32;;;;;;;3.40;0.70;;;;;21.10;96075.00;;;;5034293;28;20542;-48
2023/05/06 10:34:04;;;;;;;0.50;0.50;;;;;21.10;96070.00;;;;5017407;28;20189;-48
2023/05/06 10:36:35;;;;;;;0.40;0.40;;;21.50;35.70;21.00;96069.00;;;;5034836;28;20177;-48
2023/05/06 10:39:03;;;;;;;0.65;0.65;;;21.50;36.10;20.50;96071.00;;;;5034335;28;20220;-48
2023/05/06 10:41:32;;;;;;;0.60;0.60;;;21.10;37.00;20.60;96068.00;;;;5034200;28;20196;-47
2023/05/06 10:43:59;;;;;;;0.98;0.77;;;21.10;35.10;20.40;96069.00;;;;5034211;28;20271;-48
2023/05/06 10:46:29;;;;;;;0.50;0.50;;;21.00;35.10;20.60;96053.00;;;;5034026;28;20267;-47
2023/05/06 10:49:24;;;;;;;1.25;1.23;;;21.10;36.20;20.90;96056.00;;;;5034060;28;20281;-48
2023/05/06 10:52:11;;;;;;;0.60;0.60;;;21.30;36.10;21.00;96046.00;;;;5010174;28;20216;-48
2023/05/06 10:54:49;;;;;;;0.77;0.57;;;21.40;33.90;21.10;96035.00;;;;5034204;28;20188;-48
2023/05/06 10:57:17;;;;;;;1.13;1.10;;;21.50;37.50;21.10;96038.00;;;;5034053;28;20542;-48
2023/05/06 10:59:47;;;;;;;0.93;0.93;;;21.60;38.30;21.20;96026.00;;;;5033611;28;20678;-48
2023/05/06 11:02:19;;;;;;;0.50;0.50;;;21.50;52.60;21.70;96032.00;;;;5033720;28;20205;-46
2023/05/06 11:04:51;;;;;;;0.40;0.40;;;;;21.20;96036.00;;;;5033682;28;20635;-49
2023/05/06 11:07:23;;;;;;;0.40;0.40;;;21.60;33.20;21.20;96033.00;;;;5015909;28;20227;-48
2023/05/06 11:09:56;;;;;;;0.40;0.40;;;21.50;37.60;21.50;96030.00;;;;5033489;28;20224;-47
2023/05/06 11:12:38;;;;;;;0.38;0.38;;;;;22.00;95981.00;;;;5033511;28;20196;-48
2023/05/06 11:15:20;;;;;;;0.50;0.50;;;;;22.20;96035.00;;;;5033628;28;20205;-48
2023/05/06 11:17:54;;;;;;;0.60;0.60;;;;;22.30;96021.00;;;;5034039;28;20181;-48
2023/05/06 11:20:23;;;;;;;0.50;0.50;;;;;22.50;96021.00;;;;5033111;28;20226;-48
2023/05/06 11:22:51;;;;;;;0.40;0.40;;;;;22.60;96033.00;;;;5033477;28;20276;-48
2023/05/06 11:25:42;;;;;;;0.40;0.40;;;;;22.50;96023.00;;;;5033642;28;20251;-50
2023/05/06 11:28:11;;;;;;;0.40;0.40;;;;;22.40;96015.00;;;;5033225;28;20208;-49
2023/05/06 11:30:42;;;;;;;0.57;0.40;;;;;22.80;96029.00;;;;5033310;28;20224;-49
2023/05/06 11:33:21;;;;;;;0.30;0.30;;;;;22.40;96032.00;;;;5016116;28;20652;-50
2023/05/06 11:35:52;;;;;;;0.40;0.40;;;;;22.20;96028.00;;;;5033449;28;20185;-50
2023/05/06 11:38:19;;;;;;;0.50;0.50;;;;;22.30;96023.00;;;;5033405;28;20233;-49
2023/05/06 11:40:48;;;;;;;0.60;0.60;;;;;22.80;96026.00;;;;5033477;28;20200;-49
2023/05/06 11:43:16;;;;;;;0.30;0.30;;;;;22.80;96033.00;;;;5033152;28;20208;-49
2023/05/06 11:45:45;;;;;;;0.85;0.65;;;;;23.10;96031.00;;;;5033003;28;20189;-49
2023/05/06 11:48:14;;;;;;;0.40;0.40;;;;;23.20;96028.00;;;;5032977;28;20204;-50
2023/05/06 11:50:46;;;;;;;0.40;0.40;;;;;23.00;96022.00;;;;5032979;28;20327;-51
2023/05/06 11:53:14;;;;;;;0.38;0.38;;;;;23.20;96025.00;;;;5033335;28;20573;-49
2023/05/06 11:55:42;;;;;;;0.32;0.32;;;;;23.30;96032.00;;;;5032925;28;20197;-48
2023/05/06 11:58:14;;;;;;;0.70;0.70;;;;;23.40;96023.00;;;;5032930;28;20208;-49
2023/05/06 12:00:49;;;;;;;0.40;0.40;;;;;23.50;96011.00;;;;5033277;28;20185;-48
2023/05/06 12:03:17;;;;;;;0.50;0.50;;;;;23.90;96018.00;;;;5033494;28;20263;-50
2023/05/06 12:05:46;;;;;;;0.35;0.35;;;;;24.00;96024.00;;;;5032894;28;20203;-49
2023/05/06 12:08:15;;;;;;;0.40;0.40;;;;;23.30;96023.00;;;;5032837;28;20190;-49
2023/05/06 12:10:42;;;;;;;0.50;0.50;;;;;23.70;96027.00;;;;5032935;28;20292;-50
2023/05/06 12:13:10;;;;;;;0.50;0.50;;;;;24.40;96022.00;;;;5033136;28;20251;-48
2023/05/06 12:15:38;;;;;;;0.40;0.40;;;;;24.10;96039.00;;;;5032789;28;20193;-52
2023/05/06 12:18:06;;;;;;;0.30;0.30;;;;;23.70;96029.00;;;;5032704;28;20200;-51
2023/05/06 12:20:35;;;;;;;0.45;0.45;;;;;23.40;96028.00;;;;5032600;28;20195;-48